Time;durP1;ratioP1;P1;durP2;ratioP2;P2;SDS_P1;SDS_P2;PMS_P1;PMS_P2;Temp;Humidity;BMP_temperature;BMP_pressure;BME280_temperature;BME280_humidity;BME280_pressure;Samples;Min_cycle;Max_cycle;Signal;HPM_P1;HPM_P2
2024/01/24 00:00:15;;;;;;;26.00;24.85;;;11.90;99.90;;;;;;4834446;29;20042;-85
2024/01/24 00:02:41;;;;;;;15.23;14.32;;;11.80;99.90;;;;;;4833263;29;20089;-86
2024/01/24 00:05:07;;;;;;;13.63;12.93;;;11.90;99.90;;;;;;4833900;29;20050;-85
2024/01/24 00:07:33;;;;;;;41.20;39.35;;;12.00;99.90;;;;;;4833693;29;20056;-84
2024/01/24 00:09:59;;;;;;;23.17;22.08;;;11.90;99.90;;;;;;4833166;29;20109;-84
2024/01/24 00:12:24;;;;;;;19.83;18.95;;;11.80;99.90;;;;;;4834297;29;20133;-85
2024/01/24 00:14:50;;;;;;;186.85;174.02;;;11.90;99.90;;;;;;4832662;29;20076;-86
2024/01/24 00:17:16;;;;;;;16.40;15.57;;;11.80;99.90;;;;;;4834333;29;20053;-85
2024/01/24 00:19:42;;;;;;;14.07;13.30;;;11.80;99.90;;;;;;4832762;29;20081;-86
2024/01/24 00:22:07;;;;;;;29.45;28.05;;;11.70;99.90;;;;;;4848797;29;20046;-86
2024/01/24 00:24:33;;;;;;;12.88;12.27;;;11.80;99.90;;;;;;4833302;29;20077;-84
2024/01/24 00:26:59;;;;;;;14.20;13.45;;;11.80;99.90;;;;;;4833204;29;20132;-85
2024/01/24 00:29:24;;;;;;;14.80;14.10;;;11.80;99.90;;;;;;4833929;29;20058;-81
2024/01/24 00:31:52;;;;;;;9.93;9.32;;;11.80;99.90;;;;;;4832346;29;20078;-85
2024/01/24 00:34:18;;;;;;;16.63;15.90;;;11.90;99.90;;;;;;4848946;29;20046;-85
2024/01/24 00:36:43;;;;;;;9.35;8.82;;;12.10;99.90;;;;;;4848012;29;20057;-83
2024/01/24 00:39:09;;;;;;;14.82;14.07;;;12.20;99.90;;;;;;4833265;29;20496;-83
2024/01/24 00:41:35;;;;;;;12.30;11.65;;;12.20;99.90;;;;;;4832965;29;20046;-86
2024/01/24 00:44:00;;;;;;;11.40;10.77;;;12.20;99.90;;;;;;4833214;29;20129;-86
2024/01/24 00:46:26;;;;;;;12.80;12.30;;;12.10;99.90;;;;;;4833519;29;20049;-85
2024/01/24 00:48:52;;;;;;;33.75;31.95;;;12.00;99.90;;;;;;4832416;29;20078;-82
2024/01/24 00:51:17;;;;;;;15.23;14.60;;;11.90;99.90;;;;;;4834161;29;20130;-84
2024/01/24 00:53:50;;;;;;;15.68;14.98;;;11.90;99.90;;;;;;4831889;29;20087;-81
2024/01/24 00:56:17;;;;;;;12.20;11.70;;;11.80;99.90;;;;;;4848563;29;20052;-84
2024/01/24 00:58:42;;;;;;;10.18;9.68;;;11.90;99.90;;;;;;4848123;29;20056;-83
2024/01/24 01:01:08;;;;;;;9.90;9.38;;;11.90;99.90;;;;;;4847605;29;20046;-83
2024/01/24 01:03:34;;;;;;;10.70;10.20;;;11.80;99.90;;;;;;4835467;29;20054;-82
2024/01/24 01:05:59;;;;;;;9.68;9.05;;;11.90;99.90;;;;;;4851172;29;20411;-83
2024/01/24 01:08:25;;;;;;;35.58;33.08;;;11.90;99.90;;;;;;4837361;29;20089;-80
2024/01/24 01:10:51;;;;;;;19.35;18.42;;;12.00;99.90;;;;;;4835884;29;20430;-83
2024/01/24 01:13:16;;;;;;;8.70;8.30;;;12.00;99.90;;;;;;4837061;29;20057;-83
2024/01/24 01:15:42;;;;;;;32.10;30.58;;;12.10;99.90;;;;;;4851630;29;20507;-87
2024/01/24 01:18:08;;;;;;;28.77;27.38;;;12.10;99.90;;;;;;4835961;29;20083;-84
2024/01/24 01:20:34;;;;;;;13.00;12.50;;;12.00;99.90;;;;;;4836902;29;20045;-84
2024/01/24 01:22:59;;;;;;;50.58;47.63;;;12.00;99.90;;;;;;4851061;29;20057;-82
2024/01/24 01:25:25;;;;;;;21.98;20.95;;;12.00;99.90;;;;;;4852154;29;20057;-85
2024/01/24 01:27:51;;;;;;;12.43;11.82;;;11.90;99.90;;;;;;4835208;29;20098;-82
2024/01/24 01:30:17;;;;;;;68.93;65.47;;;11.90;99.90;;;;;;4836748;29;20042;-83
2024/01/24 01:32:43;;;;;;;92.47;86.07;;;11.90;99.90;;;;;;4832477;29;20074;-85
2024/01/24 01:35:09;;;;;;;60.92;56.92;;;11.90;99.90;;;;;;4832930;29;20117;-86
2024/01/24 01:37:37;;;;;;;34.80;32.67;;;11.80;99.90;;;;;;4834294;29;20058;-82
2024/01/24 01:40:06;;;;;;;15.90;15.18;;;11.90;99.90;;;;;;4850931;29;20054;-84
2024/01/24 01:42:32;;;;;;;8.80;8.40;;;11.90;99.90;;;;;;4836489;29;20049;-84
2024/01/24 01:44:58;;;;;;;12.43;11.90;;;12.00;99.90;;;;;;4850445;29;20056;-83
2024/01/24 01:47:24;;;;;;;11.23;10.80;;;12.00;99.90;;;;;;4851702;29;20105;-85
2024/01/24 01:49:50;;;;;;;9.35;8.95;;;12.10;99.90;;;;;;4835212;29;20078;-85
2024/01/24 01:52:17;;;;;;;38.95;36.88;;;12.10;99.90;;;;;;4835719;29;20505;-84
2024/01/24 01:54:44;;;;;;;10.88;10.38;;;12.20;99.90;;;;;;4835315;29;20058;-84
2024/01/24 01:57:11;;;;;;;13.20;12.50;;;12.20;99.90;;;;;;4835198;29;20137;-84
2024/01/24 01:59:39;;;;;;;22.67;21.52;;;12.20;99.90;;;;;;4851510;29;20081;-87
2024/01/24 02:02:06;;;;;;;7.15;6.85;;;12.30;99.90;;;;;;4834463;29;20049;-84
2024/01/24 02:04:32;;;;;;;23.83;22.58;;;12.20;99.90;;;;;;4836497;29;20125;-84
2024/01/24 02:06:57;;;;;;;30.30;28.25;;;12.20;99.90;;;;;;4834942;29;20046;-82
2024/01/24 02:09:24;;;;;;;53.33;50.72;;;12.20;99.90;;;;;;4835603;29;20061;-85
2024/01/24 02:11:50;;;;;;;15.35;14.75;;;12.00;99.90;;;;;;4835687;29;20046;-84
2024/01/24 02:14:16;;;;;;;10.98;10.50;;;11.90;99.90;;;;;;4833963;29;20106;-84
2024/01/24 02:16:42;;;;;;;10.05;9.55;;;11.80;99.90;;;;;;4835851;29;20056;-80
2024/01/24 02:19:08;;;;;;;14.60;13.98;;;11.80;99.90;;;;;;4834441;29;20046;-84
2024/01/24 02:21:33;;;;;;;8.75;8.25;;;11.80;99.90;;;;;;4835895;29;20148;-83
2024/01/24 02:24:00;;;;;;;9.43;9.02;;;11.80;99.90;;;;;;4835003;29;20081;-81
2024/01/24 02:26:26;;;;;;;10.00;9.50;;;11.80;99.90;;;;;;4835319;29;20057;-83
2024/01/24 02:28:52;;;;;;;11.48;10.90;;;11.80;99.90;;;;;;4834766;29;20054;-83
2024/01/24 02:31:19;;;;;;;11.38;10.77;;;11.90;99.90;;;;;;4849975;29;20054;-84
2024/01/24 02:33:45;;;;;;;8.82;8.48;;;11.90;99.90;;;;;;4850921;29;20061;-81
2024/01/24 02:36:14;;;;;;;7.57;7.28;;;12.00;99.90;;;;;;4849481;29;20042;-82
2024/01/24 02:38:40;;;;;;;7.93;7.47;;;12.10;99.90;;;;;;4851127;29;20061;-83
2024/01/24 02:41:07;;;;;;;11.35;10.90;;;12.10;99.90;;;;;;4834622;29;20106;-83
2024/01/24 02:43:33;;;;;;;15.07;14.27;;;12.10;99.90;;;;;;4850145;29;20062;-82
2024/01/24 02:46:00;;;;;;;17.58;16.80;;;11.90;99.90;;;;;;4849880;29;20138;-82
2024/01/24 02:48:26;;;;;;;15.30;14.70;;;11.60;99.90;;;;;;4834693;29;20114;-82
2024/01/24 02:50:52;;;;;;;13.32;12.73;;;11.50;99.90;;;;;;4835262;29;20042;-84
2024/01/24 02:53:18;;;;;;;14.60;13.88;;;11.40;99.90;;;;;;4834167;29;20042;-84
2024/01/24 02:55:44;;;;;;;18.02;17.30;;;11.40;99.90;;;;;;4835235;29;20610;-83
2024/01/24 02:58:10;;;;;;;20.42;19.63;;;11.50;99.90;;;;;;4834250;29;20094;-81
2024/01/24 03:00:36;;;;;;;15.02;14.43;;;11.40;99.90;;;;;;4834747;29;20077;-83
2024/01/24 03:03:02;;;;;;;12.35;11.75;;;11.40;99.90;;;;;;4834800;29;20411;-81
2024/01/24 03:05:28;;;;;;;14.85;14.07;;;11.40;99.90;;;;;;4834551;29;20076;-80
2024/01/24 03:07:54;;;;;;;21.27;20.25;;;11.30;99.90;;;;;;4834679;29;20046;-82
2024/01/24 03:10:22;;;;;;;14.55;13.85;;;11.30;99.90;;;;;;4833734;29;20042;-80
2024/01/24 03:12:48;;;;;;;12.82;12.30;;;11.20;99.90;;;;;;4835291;29;20086;-83
2024/01/24 03:15:15;;;;;;;20.73;19.73;;;11.20;99.90;;;;;;4834117;29;20430;-82
2024/01/24 03:17:42;;;;;;;17.98;16.35;;;11.10;99.90;;;;;;4834737;29;20491;-81
2024/01/24 03:20:08;;;;;;;42.55;40.05;;;11.10;99.90;;;;;;4849021;29;20050;-82
2024/01/24 03:22:34;;;;;;;14.20;13.55;;;11.10;99.90;;;;;;4849289;29;20094;-83
2024/01/24 03:24:59;;;;;;;16.73;15.60;;;11.00;99.90;;;;;;4834602;29;20053;-85
2024/01/24 03:27:25;;;;;;;11.75;11.02;;;11.00;99.90;;;;;;4833357;29;20042;-82
2024/01/24 03:29:51;;;;;;;22.02;20.52;;;11.00;99.90;;;;;;4850037;29;20061;-84
2024/01/24 03:32:18;;;;;;;9.77;8.95;;;10.90;99.90;;;;;;4833357;29;20105;-84
2024/01/24 03:34:54;;;;;;;8.90;8.38;;;10.90;99.90;;;;;;4849460;29;20090;-82
2024/01/24 03:37:20;;;;;;;14.98;14.02;;;10.90;99.90;;;;;;4849000;29;20069;-83
2024/01/24 03:39:46;;;;;;;8.20;7.57;;;11.00;99.90;;;;;;4833856;29;20495;-81
2024/01/24 03:42:12;;;;;;;9.32;7.97;;;11.00;99.90;;;;;;4834229;29;20052;-79
2024/01/24 03:44:37;;;;;;;8.85;7.95;;;11.00;99.90;;;;;;4833387;29;20041;-81
2024/01/24 03:47:03;;;;;;;10.63;9.75;;;10.90;99.90;;;;;;4849987;29;20105;-85
2024/01/24 03:49:29;;;;;;;9.25;8.50;;;11.00;99.90;;;;;;4832932;29;20053;-82
2024/01/24 03:51:55;;;;;;;17.13;16.23;;;11.00;99.90;;;;;;4834179;29;20148;-84
2024/01/24 03:54:22;;;;;;;8.68;7.95;;;11.00;99.90;;;;;;4833411;29;20056;-80
2024/01/24 03:56:48;;;;;;;7.95;7.22;;;11.00;99.90;;;;;;4848551;29;20072;-82
2024/01/24 03:59:14;;;;;;;7.68;7.03;;;11.00;99.90;;;;;;4848939;29;20416;-83
2024/01/24 04:01:39;;;;;;;20.67;19.55;;;11.00;99.90;;;;;;4832694;29;20100;-82
2024/01/24 04:04:05;;;;;;;8.70;8.00;;;11.10;99.90;;;;;;4849761;29;20573;-84
2024/01/24 04:06:31;;;;;;;11.38;10.30;;;11.10;99.90;;;;;;4832848;29;20137;-79
2024/01/24 04:08:57;;;;;;;7.43;5.45;;;11.10;99.90;;;;;;4848881;29;20113;-80
2024/01/24 04:11:22;;;;;;;9.20;8.48;;;11.10;99.90;;;;;;4833356;29;20056;-80
2024/01/24 04:13:56;;;;;;;10.20;9.07;;;11.10;99.90;;;;;;4833512;29;20138;-81
2024/01/24 04:16:22;;;;;;;7.93;7.13;;;11.30;99.90;;;;;;4848789;29;20057;-83
2024/01/24 04:18:50;;;;;;;12.45;11.23;;;11.30;99.90;;;;;;4833216;29;20049;-80
2024/01/24 04:21:16;;;;;;;8.95;8.15;;;11.30;99.90;;;;;;4849463;29;20105;-86
2024/01/24 04:23:42;;;;;;;9.68;8.77;;;11.40;99.90;;;;;;4832849;29;20468;-82
2024/01/24 04:26:08;;;;;;;8.95;7.50;;;11.40;99.90;;;;;;4834265;29;20038;-82
2024/01/24 04:28:34;;;;;;;7.75;6.95;;;11.40;99.90;;;;;;4847891;29;20649;-84
2024/01/24 04:30:59;;;;;;;14.50;10.88;;;11.40;99.90;;;;;;4832940;29;20053;-81
2024/01/24 04:33:25;;;;;;;9.10;6.43;;;11.40;99.90;;;;;;4833481;29;20083;-80
2024/01/24 04:35:51;;;;;;;9.70;4.82;;;11.40;99.90;;;;;;4847817;29;20123;-80
2024/01/24 04:38:17;;;;;;;11.27;8.75;;;11.70;99.90;;;;;;4833323;29;20134;-83
2024/01/24 04:40:43;;;;;;;17.10;15.70;;;11.50;99.90;;;;;;4832530;29;20044;-82
2024/01/24 04:43:08;;;;;;;18.60;14.60;;;11.40;99.90;;;;;;4833801;29;20134;-79
2024/01/24 04:45:35;;;;;;;10.63;4.80;;;11.50;99.90;;;;;;4832797;29;20065;-83
2024/01/24 04:48:00;;;;;;;18.55;17.17;;;11.50;99.90;;;;;;4833127;29;20042;-81
2024/01/24 04:50:26;;;;;;;13.82;6.43;;;11.40;99.90;;;;;;4848247;29;20109;-83
2024/01/24 04:52:52;;;;;;;10.35;9.43;;;11.40;99.90;;;;;;4847851;29;20054;-79
2024/01/24 04:55:18;;;;;;;11.13;9.63;;;11.40;99.90;;;;;;4833614;29;20050;-82
2024/01/24 04:57:44;;;;;;;11.82;6.15;;;11.40;99.90;;;;;;4832148;29;20057;-83
2024/01/24 05:00:11;;;;;;;14.55;13.25;;;11.40;99.90;;;;;;4848881;29;20050;-81
2024/01/24 05:02:37;;;;;;;11.82;6.70;;;11.40;99.90;;;;;;4832154;29;20046;-82
2024/01/24 05:05:06;;;;;;;11.30;5.93;;;11.40;99.90;;;;;;4848244;29;20038;-81
2024/01/24 05:07:33;;;;;;;9.75;5.40;;;11.40;99.90;;;;;;4848190;29;20085;-84
2024/01/24 05:10:00;;;;;;;15.52;8.27;;;11.40;99.90;;;;;;4832364;29;20060;-81
2024/01/24 05:12:26;;;;;;;10.10;6.03;;;11.40;99.90;;;;;;4848705;29;20062;-83
2024/01/24 05:14:52;;;;;;;9.73;5.95;;;11.30;99.90;;;;;;4831946;29;20053;-80
2024/01/24 05:17:17;;;;;;;13.48;7.32;;;11.30;99.90;;;;;;4848866;29;20127;-82
2024/01/24 05:19:44;;;;;;;25.10;22.92;;;11.30;99.90;;;;;;4832136;29;20054;-83
2024/01/24 05:22:09;;;;;;;14.15;9.07;;;11.30;99.90;;;;;;4832662;29;20437;-81
2024/01/24 05:24:35;;;;;;;12.85;5.88;;;11.30;99.90;;;;;;4832821;29;20046;-80
2024/01/24 05:27:01;;;;;;;11.63;4.97;;;11.20;99.90;;;;;;4832300;29;20049;-82
2024/01/24 05:29:26;;;;;;;11.38;5.30;;;11.20;99.90;;;;;;4833064;29;20054;-82
2024/01/24 05:31:52;;;;;;;19.17;17.77;;;11.20;99.90;;;;;;4831618;29;20046;-82
2024/01/24 05:34:18;;;;;;;12.93;10.70;;;11.10;99.90;;;;;;4848854;29;20118;-87
2024/01/24 05:36:44;;;;;;;12.15;8.02;;;11.10;99.90;;;;;;4847158;29;20106;-80
2024/01/24 05:39:10;;;;;;;10.32;5.78;;;11.00;99.90;;;;;;4832701;29;20061;-82
2024/01/24 05:41:35;;;;;;;14.50;7.13;;;11.00;99.90;;;;;;4832532;29;20079;-84
2024/01/24 05:44:01;;;;;;;11.45;5.90;;;11.00;99.90;;;;;;4832138;29;20042;-84
2024/01/24 05:46:27;;;;;;;12.88;5.97;;;10.90;99.90;;;;;;4832741;29;20045;-82
2024/01/24 05:48:53;;;;;;;12.85;6.18;;;10.90;99.90;;;;;;4847700;29;20056;-81
2024/01/24 05:51:18;;;;;;;12.43;7.10;;;10.80;99.90;;;;;;4836678;29;20118;-80
2024/01/24 05:53:44;;;;;;;13.20;6.53;;;10.80;99.90;;;;;;4835262;29;20054;-82
2024/01/24 05:56:10;;;;;;;13.40;6.93;;;10.80;99.90;;;;;;4836061;29;20118;-80
2024/01/24 05:58:37;;;;;;;14.05;5.07;;;10.70;99.90;;;;;;4835108;29;20104;-83
2024/01/24 06:01:05;;;;;;;27.52;18.08;;;10.70;99.90;;;;;;4835340;29;20038;-83
2024/01/24 06:03:32;;;;;;;15.95;10.75;;;10.70;99.90;;;;;;4850739;29;20054;-80
2024/01/24 06:05:57;;;;;;;12.02;5.10;;;10.70;99.90;;;;;;4849987;29;20053;-81
2024/01/24 06:08:23;;;;;;;15.25;5.13;;;10.60;99.90;;;;;;4836632;29;20114;-83
2024/01/24 06:10:50;;;;;;;14.75;5.78;;;10.60;99.90;;;;;;4834863;29;20533;-82
2024/01/24 06:13:15;;;;;;;13.63;5.60;;;10.60;99.90;;;;;;4835835;29;20105;-84
2024/01/24 06:15:41;;;;;;;11.93;6.82;;;10.60;99.90;;;;;;4850258;29;20638;-81
2024/01/24 06:18:07;;;;;;;14.77;5.18;;;10.60;99.90;;;;;;4850791;29;20046;-83
2024/01/24 06:20:33;;;;;;;14.70;6.80;;;10.60;99.90;;;;;;4851074;29;20136;-79
2024/01/24 06:22:58;;;;;;;10.73;4.80;;;10.60;99.90;;;;;;4834878;29;20418;-83
2024/01/24 06:25:24;;;;;;;12.40;3.88;;;10.50;99.90;;;;;;4851025;29;20089;-82
2024/01/24 06:27:50;;;;;;;20.52;8.43;;;10.40;99.90;;;;;;4849719;29;20399;-83
2024/01/24 06:30:15;;;;;;;14.15;7.68;;;10.50;99.90;;;;;;4835637;29;20117;-84
2024/01/24 06:32:41;;;;;;;10.15;4.43;;;10.50;99.90;;;;;;4834453;29;20060;-82
2024/01/24 06:35:10;;;;;;;13.98;5.13;;;10.50;99.90;;;;;;4835357;29;20065;-82
2024/01/24 06:37:37;;;;;;;15.38;7.95;;;10.50;99.90;;;;;;4850095;29;20499;-82
2024/01/24 06:40:05;;;;;;;14.10;6.20;;;10.50;99.90;;;;;;4834506;29;20045;-84
2024/01/24 06:42:31;;;;;;;11.90;5.30;;;10.50;99.90;;;;;;4835387;29;20439;-81
2024/01/24 06:44:56;;;;;;;23.77;21.15;;;10.40;99.90;;;;;;4834039;29;20053;-83
2024/01/24 06:47:22;;;;;;;12.65;3.92;;;10.50;99.90;;;;;;4850472;29;20041;-80
2024/01/24 06:49:48;;;;;;;12.60;6.07;;;10.50;99.90;;;;;;4834440;29;20057;-81
2024/01/24 06:52:13;;;;;;;11.52;8.05;;;10.40;99.90;;;;;;4850040;29;20050;-81
2024/01/24 06:54:39;;;;;;;14.30;4.43;;;10.40;99.90;;;;;;4849565;29;20076;-84
2024/01/24 06:57:05;;;;;;;13.35;4.85;;;10.40;99.90;;;;;;4849461;29;20136;-82
2024/01/24 06:59:31;;;;;;;15.10;4.68;;;10.40;99.90;;;;;;4850493;29;20053;-82
2024/01/24 07:01:58;;;;;;;10.98;8.63;;;10.40;99.90;;;;;;4847966;29;20158;-83
2024/01/24 07:04:25;;;;;;;14.38;6.20;;;10.40;99.90;;;;;;4835355;29;20118;-79
2024/01/24 07:06:51;;;;;;;14.50;4.97;;;10.40;99.90;;;;;;4849297;29;20053;-80
2024/01/24 07:09:17;;;;;;;12.80;4.93;;;10.40;99.90;;;;;;4834553;29;20054;-81
2024/01/24 07:11:43;;;;;;;15.20;5.10;;;10.40;99.90;;;;;;4833901;29;20081;-81
2024/01/24 07:14:08;;;;;;;13.63;4.82;;;10.40;99.90;;;;;;4834430;29;20045;-82
2024/01/24 07:16:35;;;;;;;15.10;5.35;;;10.40;99.90;;;;;;4849780;29;20053;-83
2024/01/24 07:19:01;;;;;;;13.68;4.57;;;10.40;99.90;;;;;;4833742;29;20046;-83
2024/01/24 07:21:26;;;;;;;15.60;6.55;;;10.40;99.90;;;;;;4850567;29;20071;-79
2024/01/24 07:23:52;;;;;;;11.95;4.90;;;10.50;99.90;;;;;;4848593;29;20077;-83
2024/01/24 07:26:18;;;;;;;11.57;5.07;;;10.50;99.90;;;;;;4834127;29;20049;-80
2024/01/24 07:28:43;;;;;;;16.63;5.45;;;10.50;99.90;;;;;;4833820;29;20117;-81
2024/01/24 07:31:09;;;;;;;17.67;6.50;;;10.50;99.90;;;;;;4849093;29;20050;-81
2024/01/24 07:33:35;;;;;;;15.25;6.97;;;10.50;99.90;;;;;;4834569;29;20065;-83
2024/01/24 07:36:00;;;;;;;15.15;5.88;;;10.50;99.90;;;;;;4848534;29;20438;-80
2024/01/24 07:38:26;;;;;;;12.18;5.18;;;10.60;99.90;;;;;;4834555;29;20041;-82
2024/01/24 07:40:52;;;;;;;14.70;6.70;;;10.50;99.90;;;;;;4832082;29;20050;-80
2024/01/24 07:43:17;;;;;;;11.48;8.45;;;10.40;99.90;;;;;;4833981;29;20050;-84
2024/01/24 07:45:43;;;;;;;15.00;6.88;;;10.40;99.90;;;;;;4833151;29;20046;-80
2024/01/24 07:48:13;;;;;;;17.73;7.00;;;10.40;99.90;;;;;;4833545;29;20102;-80
2024/01/24 07:50:41;;;;;;;22.45;18.05;;;10.40;99.90;;;;;;4848986;29;20065;-81
2024/01/24 07:53:07;;;;;;;16.80;5.45;;;10.40;99.90;;;;;;4833344;29;20038;-85
2024/01/24 07:55:32;;;;;;;13.82;7.63;;;10.40;99.90;;;;;;4833863;29;20061;-80
2024/01/24 07:57:58;;;;;;;16.05;6.82;;;10.40;99.90;;;;;;4832864;29;20126;-79
2024/01/24 08:00:25;;;;;;;11.93;8.35;;;10.40;99.90;;;;;;4829798;29;20422;-79
2024/01/24 08:02:50;;;;;;;14.10;7.32;;;10.40;99.90;;;;;;4847690;29;20129;-81
2024/01/24 08:05:16;;;;;;;16.58;6.50;;;10.40;99.90;;;;;;4830572;29;20081;-81
2024/01/24 08:07:42;;;;;;;14.88;6.95;;;10.40;99.90;;;;;;4847171;29;20049;-80
2024/01/24 08:10:11;;;;;;;17.10;11.23;;;10.40;99.90;;;;;;4831335;29;20110;-82
2024/01/24 08:12:40;;;;;;;19.10;11.98;;;10.30;99.90;;;;;;4833050;29;20042;-79
2024/01/24 08:15:06;;;;;;;10.20;7.78;;;10.40;99.90;;;;;;4830745;29;20133;-80
2024/01/24 08:17:34;;;;;;;14.73;5.70;;;10.40;99.90;;;;;;4832949;29;20078;-80
2024/01/24 08:19:59;;;;;;;18.02;12.27;;;10.30;99.90;;;;;;4831979;29;20518;-80
2024/01/24 08:22:29;;;;;;;19.55;16.17;;;10.30;99.90;;;;;;4847264;29;20046;-80
2024/01/24 08:24:55;;;;;;;16.83;9.45;;;10.30;99.90;;;;;;4846226;29;20092;-80
2024/01/24 08:27:21;;;;;;;12.52;5.10;;;10.30;99.90;;;;;;4831272;29;20041;-82
2024/01/24 08:29:46;;;;;;;15.88;12.52;;;10.30;99.90;;;;;;4832999;29;20053;-81
2024/01/24 08:32:12;;;;;;;16.27;9.65;;;10.20;99.90;;;;;;4831376;29;20054;-82
2024/01/24 08:34:38;;;;;;;16.15;8.65;;;10.20;99.90;;;;;;4847830;29;20049;-84
2024/01/24 08:37:05;;;;;;;16.05;8.98;;;10.20;99.90;;;;;;4831989;29;20673;-82
2024/01/24 08:39:31;;;;;;;10.57;6.03;;;10.20;99.90;;;;;;4831452;29;20050;-80
2024/01/24 08:41:57;;;;;;;12.65;4.68;;;10.20;99.90;;;;;;4847699;29;20050;-83
2024/01/24 08:44:23;;;;;;;18.08;8.77;;;10.20;99.90;;;;;;4831701;29;20046;-80
2024/01/24 08:46:50;;;;;;;22.98;6.78;;;10.20;99.90;;;;;;4848081;29;20045;-81
2024/01/24 08:49:16;;;;;;;10.32;5.75;;;10.30;99.90;;;;;;4831692;29;20054;-81
2024/01/24 08:51:42;;;;;;;17.13;6.72;;;10.20;99.90;;;;;;4846739;29;20109;-79
2024/01/24 08:54:08;;;;;;;13.95;12.23;;;10.20;99.90;;;;;;4846612;29;20110;-81
2024/01/24 08:56:34;;;;;;;15.82;9.40;;;10.20;99.90;;;;;;4832370;29;20050;-81
2024/01/24 08:59:00;;;;;;;15.82;10.10;;;10.20;99.90;;;;;;4847422;29;20092;-84
2024/01/24 09:01:27;;;;;;;16.60;10.32;;;10.20;99.90;;;;;;4813543;29;20056;-81
2024/01/24 09:03:53;;;;;;;19.90;7.55;;;10.20;99.90;;;;;;4840108;29;20058;-80
2024/01/24 09:06:20;;;;;;;17.55;6.82;;;10.20;99.90;;;;;;4831477;29;20106;-82
2024/01/24 09:08:51;;;;;;;16.17;6.57;;;10.20;99.90;;;;;;4847912;29;20057;-80
2024/01/24 09:11:18;;;;;;;14.93;6.60;;;10.20;99.90;;;;;;4831892;29;20050;-80
2024/01/24 09:13:43;;;;;;;11.77;5.80;;;10.20;99.90;;;;;;4832116;29;20053;-82
2024/01/24 09:16:09;;;;;;;16.00;6.38;;;10.20;99.90;;;;;;4846142;29;20076;-81
2024/01/24 09:18:35;;;;;;;20.65;11.60;;;10.20;99.90;;;;;;4831938;29;20046;-81
2024/01/24 09:21:01;;;;;;;14.50;6.05;;;10.30;99.90;;;;;;4846828;29;20042;-81
2024/01/24 09:23:27;;;;;;;16.00;5.95;;;10.20;99.90;;;;;;4830769;29;20089;-79
2024/01/24 09:25:52;;;;;;;15.63;5.57;;;10.20;99.90;;;;;;4836186;29;20138;-80
2024/01/24 09:28:18;;;;;;;15.07;9.90;;;10.20;99.90;;;;;;4833990;29;20050;-80
2024/01/24 09:30:44;;;;;;;17.50;6.82;;;10.20;99.90;;;;;;4835060;29;20092;-78
2024/01/24 09:33:09;;;;;;;14.25;6.25;;;10.30;99.90;;;;;;4835268;29;20109;-80
2024/01/24 09:35:35;;;;;;;13.98;6.05;;;10.20;99.90;;;;;;4849816;29;20078;-80
2024/01/24 09:38:01;;;;;;;13.20;5.15;;;10.20;99.90;;;;;;4838705;29;20149;-79
2024/01/24 09:40:27;;;;;;;12.57;6.95;;;10.20;99.90;;;;;;4847415;29;20054;-79
2024/01/24 09:42:53;;;;;;;13.77;7.30;;;10.10;99.90;;;;;;4835928;29;20116;-80
2024/01/24 09:45:22;;;;;;;14.45;7.43;;;10.20;99.90;;;;;;4833954;29;20054;-80
2024/01/24 09:47:50;;;;;;;12.60;10.80;;;10.20;99.90;;;;;;4835182;29;20074;-80
2024/01/24 09:50:16;;;;;;;14.70;6.18;;;10.20;99.90;;;;;;4834438;29;20086;-82
2024/01/24 09:52:43;;;;;;;17.33;12.05;;;10.20;99.90;;;;;;4832803;29;20061;-80
2024/01/24 09:55:13;;;;;;;14.23;5.53;;;10.30;99.90;;;;;;4827747;29;20068;-79
2024/01/24 09:57:39;;;;;;;16.45;8.95;;;10.30;99.90;;;;;;4833175;29;20056;-80
2024/01/24 10:00:07;;;;;;;8.18;4.82;;;10.30;99.90;;;;;;4835548;29;20093;-81
2024/01/24 10:02:33;;;;;;;12.13;5.10;;;10.40;99.90;;;;;;4829091;29;20048;-81
2024/01/24 10:05:02;;;;;;;21.08;10.43;;;10.40;99.90;;;;;;4827461;29;20081;-79
2024/01/24 10:07:28;;;;;;;10.13;6.72;;;10.50;99.90;;;;;;4849550;29;20118;-80
2024/01/24 10:10:07;;;;;;;18.50;6.18;;;10.50;99.90;;;;;;4831868;29;20057;-78
2024/01/24 10:12:32;;;;;;;12.13;5.97;;;10.50;99.90;;;;;;4834440;29;20110;-79
2024/01/24 10:14:58;;;;;;;17.23;8.80;;;10.50;99.90;;;;;;4848035;29;20058;-79
2024/01/24 10:17:24;;;;;;;10.77;7.63;;;10.60;99.90;;;;;;4849727;29;20060;-79
2024/01/24 10:19:50;;;;;;;16.80;6.88;;;10.60;99.90;;;;;;4849179;29;20057;-80
2024/01/24 10:22:16;;;;;;;13.57;7.93;;;10.60;99.90;;;;;;4849316;29;20049;-82
2024/01/24 10:24:41;;;;;;;14.52;5.10;;;10.60;99.90;;;;;;4849723;29;20049;-82
2024/01/24 10:27:09;;;;;;;13.15;4.85;;;10.70;99.90;;;;;;4834495;29;20077;-81
2024/01/24 10:29:34;;;;;;;18.25;10.88;;;10.80;99.90;;;;;;4833852;29;20171;-82
2024/01/24 10:32:01;;;;;;;12.55;7.18;;;10.80;99.90;;;;;;4833702;29;20049;-81
2024/01/24 10:34:27;;;;;;;16.92;6.20;;;10.70;99.90;;;;;;4834719;29;20046;-78
2024/01/24 10:36:53;;;;;;;10.63;4.65;;;10.80;99.90;;;;;;4829314;29;20052;-79
2024/01/24 10:39:22;;;;;;;13.15;5.07;;;10.90;99.90;;;;;;4834184;29;20049;-80
2024/01/24 10:41:51;;;;;;;12.05;9.00;;;11.00;99.90;;;;;;4833675;29;20140;-78
2024/01/24 10:44:19;;;;;;;15.77;8.90;;;11.10;99.90;;;;;;4833798;29;20054;-80
2024/01/24 10:46:45;;;;;;;11.10;5.10;;;11.00;99.90;;;;;;4849674;29;20056;-80
2024/01/24 10:49:12;;;;;;;13.15;8.18;;;11.00;99.90;;;;;;4848447;29;20046;-81
2024/01/24 10:51:39;;;;;;;10.77;5.95;;;11.20;99.90;;;;;;4834320;29;20057;-81
2024/01/24 10:54:07;;;;;;;14.93;5.28;;;11.10;99.90;;;;;;4832670;29;20121;-81
2024/01/24 10:56:34;;;;;;;15.88;5.00;;;11.20;99.90;;;;;;4833885;29;20087;-79
2024/01/24 10:59:05;;;;;;;18.33;11.23;;;10.90;99.90;;;;;;4848960;29;20061;-80
2024/01/24 11:01:31;;;;;;;12.85;10.05;;;10.80;99.90;;;;;;4832820;29;20038;-82
2024/01/24 11:03:58;;;;;;;12.40;5.35;;;10.70;99.90;;;;;;4833544;29;20049;-80
2024/01/24 11:06:27;;;;;;;13.00;5.43;;;10.60;99.90;;;;;;4833174;29;20049;-82
2024/01/24 11:09:12;;;;;;;10.63;4.60;;;10.80;99.90;;;;;;4834099;29;20057;-80
2024/01/24 11:11:41;;;;;;;13.00;3.85;;;10.80;99.90;;;;;;4832539;29;20045;-79
2024/01/24 11:14:09;;;;;;;11.07;4.40;;;10.80;99.90;;;;;;4832904;29;20046;-81
2024/01/24 11:16:37;;;;;;;15.65;5.10;;;10.80;99.90;;;;;;4833484;29;20050;-79
2024/01/24 11:19:26;;;;;;;10.95;5.60;;;10.90;99.90;;;;;;4847878;29;20049;-80
2024/01/24 11:21:54;;;;;;;14.30;7.35;;;10.80;99.90;;;;;;4833755;29;20415;-80
2024/01/24 11:24:44;;;;;;;10.73;4.60;;;10.80;99.90;;;;;;4833372;29;20038;-80
2024/01/24 11:27:35;;;;;;;13.45;6.82;;;10.90;99.90;;;;;;4832943;29;20057;-84
2024/01/24 11:30:36;;;;;;;13.23;5.03;;;11.00;99.90;;;;;;4833095;29;20064;-80
2024/01/24 11:33:04;;;;;;;13.15;4.80;;;11.00;99.90;;;;;;4830108;29;20163;-81
2024/01/24 11:35:42;;;;;;;11.20;6.07;;;11.00;99.90;;;;;;4845352;29;20074;-78
2024/01/24 11:38:19;;;;;;;14.98;5.60;;;11.00;99.90;;;;;;4849160;29;20050;-82
2024/01/24 11:40:44;;;;;;;11.68;8.38;;;11.00;99.90;;;;;;4846684;29;20056;-82
2024/01/24 11:43:27;;;;;;;13.25;5.75;;;10.90;99.90;;;;;;4848913;29;20046;-80
2024/01/24 11:46:06;;;;;;;9.82;4.38;;;10.80;99.90;;;;;;4847512;29;20085;-81
2024/01/24 11:48:34;;;;;;;19.17;14.35;;;10.80;99.90;;;;;;4813850;29;20046;-80
2024/01/24 11:51:01;;;;;;;13.20;5.43;;;10.70;99.90;;;;;;4815567;29;20110;-80
2024/01/24 11:53:28;;;;;;;15.60;4.28;;;10.60;99.90;;;;;;4837248;29;20041;-81
2024/01/24 11:56:01;;;;;;;10.73;4.45;;;10.60;99.90;;;;;;4833665;29;20090;-80
2024/01/24 11:58:28;;;;;;;12.68;4.95;;;10.60;99.90;;;;;;4848052;29;20084;-80
2024/01/24 12:01:13;;;;;;;14.52;12.10;;;10.50;99.90;;;;;;4847827;29;20074;-82
2024/01/24 12:03:46;;;;;;;14.52;7.38;;;10.50;99.90;;;;;;4848759;29;20049;-80
2024/01/24 12:06:12;;;;;;;18.23;14.13;;;10.50;99.90;;;;;;4846546;29;20050;-80
2024/01/24 12:08:38;;;;;;;11.90;10.02;;;10.50;99.90;;;;;;4834068;29;20050;-79
2024/01/24 12:11:07;;;;;;;24.30;22.33;;;10.50;99.90;;;;;;4848066;29;20052;-81
2024/01/24 12:13:33;;;;;;;9.00;6.45;;;10.50;99.90;;;;;;4832864;29;20084;-80
2024/01/24 12:16:01;;;;;;;17.52;16.02;;;10.40;99.90;;;;;;4832618;29;20083;-82
2024/01/24 12:18:30;;;;;;;16.17;7.15;;;10.40;99.90;;;;;;4831902;29;20081;-80
2024/01/24 12:20:56;;;;;;;13.90;8.70;;;10.40;99.90;;;;;;4848829;29;20038;-80
2024/01/24 12:23:22;;;;;;;6.22;4.65;;;10.40;99.90;;;;;;4847280;29;20410;-79
2024/01/24 12:25:48;;;;;;;14.60;6.50;;;10.40;99.90;;;;;;4833904;29;20045;-79
2024/01/24 12:28:14;;;;;;;17.00;11.25;;;10.40;99.90;;;;;;4830590;29;20057;-82
2024/01/24 12:30:47;;;;;;;13.60;12.20;;;10.40;99.90;;;;;;4830682;29;20046;-81
2024/01/24 12:33:17;;;;;;;9.52;5.50;;;10.40;99.90;;;;;;4847960;29;20054;-80